createdAt,value
2023-05-12T00:04:01.959Z,99594.22
2023-05-12T00:09:03.918Z,99607.69
2023-05-12T00:14:06.473Z,99633.25
2023-05-12T00:19:08.878Z,99603.09
2023-05-12T00:24:10.593Z,99615.53
2023-05-12T00:29:12.329Z,99614.69
2023-05-12T00:34:13.986Z,99601.13
2023-05-12T00:39:15.635Z,99624.81
2023-05-12T00:44:18.502Z,99635.50
2023-05-12T00:49:20.956Z,99605.16
2023-05-12T00:54:23.300Z,99622.34
2023-05-12T00:59:25.002Z,99647.69
2023-05-12T01:04:26.678Z,99613.78
2023-05-12T01:09:28.417Z,99649.97
2023-05-12T01:14:30.121Z,99577.50
2023-05-12T01:19:44.050Z,99626.50
2023-05-12T01:24:50.531Z,99667.72
2023-05-12T01:29:53.205Z,99634.16
2023-05-12T01:34:54.907Z,99661.13
2023-05-12T01:39:56.605Z,99665.50
2023-05-12T01:44:58.221Z,99643.97
2023-05-12T01:49:59.843Z,99656.38
2023-05-12T01:55:01.460Z,99604.00
2023-05-12T02:00:03.936Z,99642.19
2023-05-12T02:05:06.057Z,99639.25
2023-05-12T02:10:08.312Z,99607.75
2023-05-12T02:15:10.372Z,99623.41
2023-05-12T02:20:12.509Z,99721.75
2023-05-12T02:25:14.382Z,99623.03
2023-05-12T02:30:16.039Z,99626.00
2023-05-12T02:35:17.787Z,99646.34
2023-05-12T02:40:19.753Z,99591.78
2023-05-12T02:45:21.521Z,99584.16
2023-05-12T02:50:23.296Z,99559.38
2023-05-12T02:55:25.097Z,99539.25
2023-05-12T03:00:26.800Z,99589.03
2023-05-12T03:05:28.555Z,99579.16
2023-05-12T03:10:30.623Z,99617.22
2023-05-12T03:15:32.381Z,99599.72
2023-05-12T03:20:34.170Z,99573.69
2023-05-12T03:25:36.051Z,99613.66
2023-05-12T03:30:37.743Z,99663.97
2023-05-12T03:35:39.744Z,99662.13
2023-05-12T03:40:41.452Z,99648.63
2023-05-12T03:45:43.178Z,99631.22
2023-05-12T03:50:44.846Z,99625.56
2023-05-12T03:55:46.620Z,99631.91
2023-05-12T04:00:50.170Z,99631.03
2023-05-12T04:05:58.188Z,99662.84
2023-05-12T04:11:01.432Z,99678.31
2023-05-12T04:16:03.326Z,99672.03
2023-05-12T04:21:05.535Z,99601.44
2023-05-12T04:26:07.275Z,99729.16
2023-05-12T04:31:08.924Z,99650.25
2023-05-12T04:36:10.746Z,99662.16
2023-05-12T04:41:12.486Z,99605.88
2023-05-12T04:46:14.250Z,99668.16
2023-05-12T04:51:16.127Z,99610.94
2023-05-12T04:56:17.763Z,99671.75
2023-05-12T05:01:19.497Z,99648.47
2023-05-12T05:06:21.239Z,99702.91
2023-05-12T05:11:23.439Z,99649.31
2023-05-12T05:16:25.336Z,99617.16
2023-05-12T05:21:27.040Z,99705.94
2023-05-12T05:26:29.052Z,99731.31
2023-05-12T05:31:30.802Z,99679.25
2023-05-12T05:36:32.522Z,99654.91
2023-05-12T05:41:34.164Z,99671.91
2023-05-12T05:46:35.909Z,99648.69
2023-05-12T05:51:37.773Z,99602.19
2023-05-12T05:56:39.514Z,99653.06
2023-05-12T06:01:41.179Z,99726.19
2023-05-12T06:06:42.965Z,99606.97
2023-05-12T06:11:44.709Z,99592.91
2023-05-12T06:16:46.404Z,99720.78
2023-05-12T06:21:48.125Z,99714.78
2023-05-12T06:26:49.733Z,99684.88
2023-05-12T06:31:51.582Z,99713.47
2023-05-12T06:36:55.009Z,99647.47
2023-05-12T06:41:57.010Z,99670.44
2023-05-12T06:46:59.413Z,99637.28
2023-05-12T06:52:01.290Z,99680.09
2023-05-12T06:57:03.001Z,99662.88
2023-05-12T07:02:04.782Z,99593.19
2023-05-12T07:07:06.424Z,99589.94
2023-05-12T07:12:08.147Z,99651.06
2023-05-12T07:17:09.988Z,99710.56
2023-05-12T07:22:12.203Z,99650.28
2023-05-12T07:27:13.839Z,99651.88
2023-05-12T07:32:16.069Z,99638.06
2023-05-12T07:37:18.186Z,99658.19
2023-05-12T07:42:19.935Z,99659.41
2023-05-12T07:47:21.642Z,99681.56
2023-05-12T07:52:24.270Z,99620.88
2023-05-12T07:57:26.124Z,99647.03
2023-05-12T08:02:27.800Z,99613.94
2023-05-12T08:07:29.521Z,99664.94
2023-05-12T08:12:31.296Z,99608.34
2023-05-12T08:17:33.024Z,99566.47
2023-05-12T08:22:34.666Z,99579.00
2023-05-12T08:27:36.299Z,99643.09
2023-05-12T08:32:38.214Z,99623.72
2023-05-12T08:37:39.843Z,99610.94
2023-05-12T08:43:02.101Z,99570.31
2023-05-12T08:48:05.660Z,99568.84
2023-05-12T08:53:11.848Z,99611.03
2023-05-12T08:58:15.133Z,99602.94
2023-05-12T09:03:18.322Z,99600.84
2023-05-12T09:08:20.098Z,99574.00
2023-05-12T09:14:01.001Z,99581.72
2023-05-12T09:19:04.616Z,99614.50
2023-05-12T09:24:09.083Z,99586.44
2023-05-12T09:29:15.741Z,99594.31
2023-05-12T09:34:32.391Z,99533.16
2023-05-12T09:39:37.856Z,99567.91
2023-05-12T09:44:40.927Z,99533.75
2023-05-12T09:49:46.565Z,99572.22
2023-05-12T09:54:48.561Z,99586.28
2023-05-12T09:59:51.348Z,99543.53
2023-05-12T10:04:58.388Z,99547.66
2023-05-12T10:10:03.218Z,99550.03
2023-05-12T10:15:07.543Z,99549.00
2023-05-12T10:20:10.273Z,99513.44
2023-05-12T10:25:13.951Z,99505.31
2023-05-12T10:30:16.369Z,99527.56
2023-05-12T10:35:18.953Z,99523.22
2023-05-12T10:40:25.626Z,99473.72
2023-05-12T10:45:28.191Z,99457.88
2023-05-12T10:50:30.684Z,99520.75
2023-05-12T10:55:35.551Z,99514.50
2023-05-12T11:06:30.594Z,99612.44
2023-05-12T11:11:33.740Z,99588.72
2023-05-12T11:16:42.558Z,99584.88
2023-05-12T11:21:44.317Z,99535.44
2023-05-12T11:26:46.154Z,99553.63
2023-05-12T11:31:49.188Z,99557.44
2023-05-12T11:36:52.906Z,99578.09
2023-05-12T11:42:05.425Z,99578.13
2023-05-12T11:47:14.627Z,99559.00
2023-05-12T11:52:17.488Z,99566.13
2023-05-12T11:57:30.093Z,99550.81
2023-05-12T12:02:32.697Z,99549.94
2023-05-12T12:07:36.017Z,99579.03
2023-05-12T12:12:37.636Z,99594.63
2023-05-12T12:17:40.359Z,99586.81
2023-05-12T12:22:42.187Z,99592.09
2023-05-12T12:27:43.726Z,99567.88
2023-05-12T12:32:46.130Z,99565.91
2023-05-12T12:37:53.953Z,99587.19
2023-05-12T12:42:55.726Z,99612.97
2023-05-12T12:47:57.489Z,99563.75
2023-05-12T12:52:59.214Z,99546.16
2023-05-12T12:58:00.779Z,99571.25
2023-05-12T13:03:02.519Z,99576.84
2023-05-12T13:08:04.730Z,99568.69
2023-05-12T13:13:06.320Z,99542.59
2023-05-12T13:18:07.993Z,99534.63
2023-05-12T13:23:09.648Z,99587.84
2023-05-12T13:28:11.168Z,99556.34
2023-05-12T13:33:12.906Z,99551.41
2023-05-12T13:38:14.568Z,99538.44
2023-05-12T13:43:16.254Z,99511.03
2023-05-12T13:48:17.928Z,99497.38
2023-05-12T13:53:19.698Z,99548.84
2023-05-12T13:58:21.257Z,99541.22
2023-05-12T14:03:23.155Z,99560.88
2023-05-12T14:08:24.716Z,99524.72
2023-05-12T14:13:26.421Z,99563.88
2023-05-12T14:18:28.180Z,99523.41
2023-05-12T14:23:29.853Z,99569.88
2023-05-12T14:28:31.668Z,99548.81
2023-05-12T14:33:33.282Z,99476.38
2023-05-12T14:38:35.223Z,99535.13
2023-05-12T14:43:37.474Z,99548.97
2023-05-12T14:48:39.035Z,99526.75
2023-05-12T14:53:40.784Z,99521.97
2023-05-12T14:58:42.317Z,99487.31
2023-05-12T15:03:44.372Z,99531.66
2023-05-12T15:08:46.099Z,99504.06
2023-05-12T15:13:47.854Z,99533.47
2023-05-12T15:18:50.195Z,99547.53
2023-05-12T15:23:51.781Z,99576.38
2023-05-12T15:28:53.468Z,99522.47
2023-05-12T15:33:56.810Z,99530.84
2023-05-12T15:38:58.811Z,99549.94
2023-05-12T15:44:00.360Z,99564.75
2023-05-12T15:49:02.292Z,99582.09
2023-05-12T15:54:05.267Z,99556.16
2023-05-12T15:59:07.568Z,99582.63
2023-05-12T16:04:09.165Z,99555.50
2023-05-12T16:09:11.152Z,99594.06
2023-05-12T16:14:13.978Z,99581.94
2023-05-12T16:19:15.917Z,99540.28
2023-05-12T16:24:17.711Z,99565.28
2023-05-12T16:29:19.305Z,99579.94
2023-05-12T16:34:21.225Z,99569.53
2023-05-12T16:39:22.816Z,99553.91
2023-05-12T16:44:24.804Z,99588.91
2023-05-12T16:49:26.521Z,99594.50
2023-05-12T16:54:28.212Z,99582.72
2023-05-12T16:59:32.356Z,99587.69
2023-05-12T17:04:34.618Z,99571.34
2023-05-12T17:09:36.443Z,99526.78
2023-05-12T17:14:37.997Z,99564.22
2023-05-12T17:19:42.066Z,99561.97
2023-05-12T17:24:44.457Z,99605.19
2023-05-12T17:29:46.104Z,99612.94
2023-05-12T17:34:50.475Z,99617.03
2023-05-12T17:39:52.451Z,99606.31
2023-05-12T17:44:54.094Z,99598.34
2023-05-12T17:49:55.780Z,99607.16
2023-05-12T17:54:57.466Z,99595.78
2023-05-12T17:59:59.153Z,99617.72
2023-05-12T18:05:00.698Z,99652.31
2023-05-12T18:10:02.716Z,99668.53
2023-05-12T18:15:06.308Z,99609.69
2023-05-12T18:20:08.830Z,99638.16
2023-05-12T18:25:12.804Z,99638.41
2023-05-12T18:30:14.892Z,99657.53
2023-05-12T18:35:16.698Z,99653.16
2023-05-12T18:40:18.283Z,99635.03
2023-05-12T18:45:20.346Z,99661.72
2023-05-12T18:50:22.297Z,99671.06
2023-05-12T18:55:23.969Z,99686.94
2023-05-12T19:00:27.638Z,99666.66
2023-05-12T19:05:29.993Z,99687.38
2023-05-12T19:10:31.582Z,99715.28
2023-05-12T19:15:33.226Z,99718.69
2023-05-12T19:20:36.301Z,99675.34
2023-05-12T19:25:37.873Z,99704.56
2023-05-12T19:30:39.539Z,99707.38
2023-05-12T19:35:41.138Z,99733.22
2023-05-12T19:40:42.730Z,99638.28
2023-05-12T19:45:44.352Z,99736.22
2023-05-12T19:50:46.880Z,99741.41
2023-05-12T19:55:48.444Z,99761.66
2023-05-12T20:00:50.063Z,99663.34
2023-05-12T20:05:51.645Z,99774.28
2023-05-12T20:10:53.239Z,99760.81
2023-05-12T20:15:55.075Z,99781.13
2023-05-12T20:20:56.684Z,99772.44
2023-05-12T20:25:58.341Z,99799.13
2023-05-12T20:30:59.971Z,99775.28
2023-05-12T20:36:01.788Z,99798.91
2023-05-12T20:41:05.368Z,99816.53
2023-05-12T20:46:07.323Z,99776.94
2023-05-12T20:51:12.881Z,99724.19
2023-05-12T20:56:14.638Z,99823.75
2023-05-12T21:01:16.946Z,99825.81
2023-05-12T21:06:18.545Z,99811.53
2023-05-12T21:11:20.081Z,99809.00
2023-05-12T21:16:21.935Z,99818.38
2023-05-12T21:21:23.557Z,99832.00
2023-05-12T21:26:26.850Z,99838.25
2023-05-12T21:31:29.273Z,99802.75
2023-05-12T21:36:31.655Z,99844.06
2023-05-12T21:41:33.357Z,99835.59
2023-05-12T21:46:35.661Z,99857.00
2023-05-12T21:51:37.390Z,99811.63
2023-05-12T21:56:38.994Z,99838.25
2023-05-12T22:01:40.606Z,99805.91
2023-05-12T22:06:42.448Z,99830.97
2023-05-12T22:11:45.096Z,99826.00
2023-05-12T22:16:47.096Z,99856.41
2023-05-12T22:21:48.933Z,99854.41
2023-05-12T22:26:50.833Z,99863.94
2023-05-12T22:31:52.396Z,99826.97
2023-05-12T22:36:54.036Z,99810.31
2023-05-12T22:41:55.842Z,99849.38
2023-05-12T22:46:57.702Z,99840.72
2023-05-12T22:51:59.858Z,99822.78
2023-05-12T22:57:01.404Z,99866.25
2023-05-12T23:02:03.416Z,99875.69
2023-05-12T23:07:06.963Z,99846.72
2023-05-12T23:12:10.613Z,99881.75
2023-05-12T23:17:12.297Z,99870.97
2023-05-12T23:22:13.962Z,99879.41
2023-05-12T23:27:15.652Z,99852.00
2023-05-12T23:32:17.354Z,99874.41
2023-05-12T23:37:21.767Z,99839.44
2023-05-12T23:42:23.324Z,99816.88
2023-05-12T23:47:25.018Z,99833.44
2023-05-12T23:52:26.680Z,99846.16
2023-05-12T23:57:28.258Z,99850.56
